Time;durP1;ratioP1;P1;durP2;ratioP2;P2;SDS_P1;SDS_P2;PMS_P1;PMS_P2;Temp;Humidity;BMP_temperature;BMP_pressure;BME280_temperature;BME280_humidity;BME280_pressure;Samples;Min_cycle;Max_cycle;Signal;HPM_P1;HPM_P2
2024/04/12 00:01:06;;;;;;;4.88;2.90;;;;;;;12.28;56.48;96417.78;5430623;26;20055;-44
2024/04/12 00:03:31;;;;;;;4.90;3.08;;;;;;;12.51;55.23;96418.84;5438027;26;19999;-45
2024/04/12 00:06:00;;;;;;;4.45;3.10;;;;;;;12.25;56.58;96431.16;5444520;26;20052;-45
2024/04/12 00:08:25;;;;;;;4.78;3.30;;;;;;;12.20;56.08;96423.78;5444046;26;20014;-47
2024/04/12 00:10:55;;;;;;;5.57;3.30;;;;;;;12.16;56.77;96416.47;5445894;26;19999;-45
2024/04/12 00:13:21;;;;;;;4.60;3.00;;;;;;;12.11;56.20;96415.16;5437505;26;20076;-47
2024/04/12 00:15:47;;;;;;;6.57;3.35;;;;;;;12.12;56.26;96414.16;5445404;26;19995;-46
2024/04/12 00:18:13;;;;;;;4.13;3.40;;;;;;;12.18;55.97;96404.06;5445590;26;19995;-45
2024/04/12 00:20:38;;;;;;;5.15;3.28;;;;;;;11.69;57.96;96400.25;5447411;26;19995;-46
2024/04/12 00:23:04;;;;;;;4.75;3.33;;;;;;;12.07;56.58;96399.94;5435485;26;19996;-45
2024/04/12 00:25:29;;;;;;;4.40;3.25;;;;;;;11.86;57.86;96387.28;5442197;26;20002;-45
2024/04/12 00:27:55;;;;;;;7.20;3.40;;;;;;;11.96;57.50;96398.47;5430200;26;20011;-45
2024/04/12 00:30:41;;;;;;;5.57;3.55;;;;;;;12.20;56.45;96392.50;5471083;26;20006;-46
2024/04/12 00:33:09;;;;;;;4.93;3.13;;;;;;;12.26;55.82;96397.09;5437160;26;20075;-45
2024/04/12 00:35:40;;;;;;;5.43;3.50;;;;;;;11.79;57.43;96389.72;5439137;26;19999;-47
2024/04/12 00:38:12;;;;;;;4.82;3.50;;;;;;;12.02;57.25;96394.41;5440509;26;20003;-45
2024/04/12 00:40:40;;;;;;;3.75;3.20;;;;;;;12.11;56.62;96391.66;5445133;26;20013;-46
2024/04/12 00:43:11;;;;;;;6.15;3.53;;;;;;;11.97;57.21;96388.84;5435885;26;20003;-44
2024/04/12 00:45:48;;;;;;;;;;;;;;;11.91;57.91;96398.09;5416625;26;19998;-45
2024/04/12 00:48:15;;;;;;;5.00;2.88;;;;;;;12.11;56.83;96401.28;5448202;26;19924;-45
2024/04/12 00:50:43;;;;;;;5.10;3.17;;;;;;;12.28;56.12;96407.34;5449058;26;19999;-48
2024/04/12 00:53:22;;;;;;;4.80;2.97;;;;;;;12.52;55.34;96401.38;5442106;26;20000;-46
2024/04/12 00:56:00;;;;;;;4.68;2.78;;;;;;;12.41;55.86;96407.72;5450968;26;20003;-45
2024/04/12 00:58:34;;;;;;;4.28;3.30;;;;;;;12.18;56.45;96409.28;5448980;26;19998;-45
2024/04/12 01:01:15;;;;;;;5.45;3.25;;;;;;;12.43;55.86;96411.00;5438556;26;20003;-45
2024/04/12 01:03:49;;;;;;;5.43;3.13;;;;;;;12.49;55.45;96412.97;5450681;26;20014;-45
2024/04/12 01:06:20;;;;;;;4.47;3.10;;;;;;;12.40;55.62;96408.72;5448213;26;20026;-47
2024/04/12 01:08:46;;;;;;;4.82;3.15;;;;;;;12.48;55.27;96416.53;5447248;26;20017;-45
2024/04/12 01:11:15;;;;;;;4.80;2.85;;;;;;;12.50;55.29;96414.59;5450232;26;19999;-46
2024/04/12 01:13:41;;;;;;;5.45;3.00;;;;;;;12.49;55.22;96414.78;5449349;26;20355;-45
2024/04/12 01:16:07;;;;;;;4.85;3.10;;;;;;;12.61;54.57;96428.34;5449226;26;20003;-45
2024/04/12 01:18:32;;;;;;;5.25;2.80;;;;;;;12.48;54.94;96434.00;5431881;26;20000;-45
2024/04/12 01:21:10;;;;;;;5.07;3.08;;;;;;;12.24;55.94;96429.50;5447544;26;20006;-46
2024/04/12 01:23:42;;;;;;;6.28;3.20;;;;;;;12.18;56.19;96432.75;5447773;26;20011;-47
2024/04/12 01:26:12;;;;;;;5.47;3.00;;;;;;;12.20;55.73;96430.81;5440934;26;20002;-46
2024/04/12 01:28:44;;;;;;;3.25;2.63;;;;;;;12.04;56.46;96429.78;5448684;26;20035;-45
2024/04/12 01:31:17;;;;;;;5.53;2.90;;;;;;;11.91;56.82;96435.41;5455851;26;19999;-45
2024/04/12 01:33:49;;;;;;;5.78;3.50;;;;;;;12.03;56.53;96435.97;5476288;26;20378;-46
2024/04/12 01:36:22;;;;;;;5.45;3.25;;;;;;;11.92;56.27;96433.66;5442560;26;20082;-45
2024/04/12 01:38:54;;;;;;;4.85;3.38;;;;;;;11.70;56.78;96429.75;5428645;26;20022;-45
2024/04/12 01:41:27;;;;;;;5.05;3.20;;;;;;;11.89;56.81;96434.75;5428901;26;19999;-48
2024/04/12 01:43:53;;;;;;;4.68;3.10;;;;;;;11.95;56.83;96435.13;5447342;26;19999;-46
2024/04/12 01:46:26;;;;;;;5.35;3.08;;;;;;;12.09;56.44;96434.53;5437354;26;20035;-45
2024/04/12 01:48:51;;;;;;;4.65;3.03;;;;;;;12.07;57.01;96426.03;5407961;26;20006;-49
2024/04/12 01:51:17;;;;;;;5.82;3.22;;;;;;;11.98;57.39;96422.59;5448415;26;20014;-48
2024/04/12 01:53:42;;;;;;;4.00;3.15;;;;;;;12.04;57.43;96424.56;5444944;26;19999;-45
2024/04/12 01:56:09;;;;;;;4.65;3.30;;;;;;;12.08;57.01;96431.09;5443710;26;20018;-50
2024/04/12 01:58:39;;;;;;;4.10;2.95;;;;;;;12.25;56.48;96433.78;5414862;26;20003;-48
2024/04/12 02:01:11;;;;;;;6.40;3.20;;;;;;;12.28;56.18;96425.63;5447677;26;19999;-47
2024/04/12 02:03:37;;;;;;;6.13;3.80;;;;;;;12.02;57.37;96423.91;5448368;26;20385;-49
2024/04/12 02:06:04;;;;;;;4.25;3.50;;;;;;;11.90;57.24;96417.34;5444143;26;20080;-48
2024/04/12 02:08:30;;;;;;;6.53;3.95;;;;;;;11.90;57.69;96419.94;5448047;26;19999;-47
2024/04/12 02:10:57;;;;;;;4.35;3.63;;;;;;;11.95;57.71;96416.88;5443158;26;20010;-49
2024/04/12 02:13:23;;;;;;;3.85;3.30;;;;;;;11.96;56.93;96419.31;5442682;26;19999;-47
2024/04/12 02:15:53;;;;;;;5.90;3.00;;;;;;;12.00;56.58;96423.25;5439322;26;20014;-50
2024/04/12 02:18:22;;;;;;;4.82;3.22;;;;;;;12.09;55.71;96417.09;5427316;26;20010;-47
2024/04/12 02:20:49;;;;;;;3.70;2.90;;;;;;;11.98;56.25;96419.97;5447963;26;20458;-46
2024/04/12 02:23:15;;;;;;;4.65;2.95;;;;;;;11.97;56.26;96426.16;5444896;26;20014;-51
2024/04/12 02:25:42;;;;;;;3.97;3.20;;;;;;;12.01;56.49;96427.47;5447541;26;20007;-47
2024/04/12 02:28:09;;;;;;;6.55;3.33;;;;;;;11.99;56.27;96421.59;5444529;26;20443;-48
2024/04/12 02:30:43;;;;;;;4.10;3.05;;;;;;;11.77;56.83;96415.13;5433820;26;20068;-49
2024/04/12 02:33:14;;;;;;;4.20;3.03;;;;;;;11.78;56.43;96423.75;5443685;26;19999;-49
2024/04/12 02:35:41;;;;;;;5.93;3.35;;;;;;;11.54;57.18;96418.25;5434768;26;20459;-46
2024/04/12 02:38:20;;;;;;;5.93;3.08;;;;;;;11.64;56.95;96418.16;5449023;26;20721;-51
2024/04/12 02:40:47;;;;;;;5.22;3.08;;;;;;;11.76;56.57;96423.09;5440114;26;20003;-49
2024/04/12 02:43:18;;;;;;;5.38;3.10;;;;;;;11.84;55.89;96434.41;5443002;26;20030;-49
2024/04/12 02:45:51;;;;;;;4.78;3.45;;;;;;;11.86;56.21;96434.22;5445560;26;20004;-49
2024/04/12 02:48:17;;;;;;;4.22;2.92;;;;;;;11.77;56.18;96433.38;5447406;26;20014;-48
2024/04/12 02:50:48;;;;;;;4.43;3.53;;;;;;;11.44;57.24;96434.94;5445084;26;20002;-50
2024/04/12 02:53:19;;;;;;;4.95;3.53;;;;;;;11.68;57.04;96440.31;5433237;26;20504;-48
2024/04/12 02:55:47;;;;;;;4.10;2.92;;;;;;;11.75;56.82;96435.31;5422426;26;20002;-47
2024/04/12 02:58:13;;;;;;;4.95;3.30;;;;;;;11.77;56.39;96445.59;5441370;26;20004;-46
2024/04/12 03:00:39;;;;;;;4.75;3.13;;;;;;;11.84;56.48;96446.59;5446787;26;19999;-51
2024/04/12 03:03:05;;;;;;;5.20;3.50;;;;;;;11.59;57.29;96451.66;5448999;26;20013;-46
2024/04/12 03:05:32;;;;;;;7.20;3.42;;;;;;;11.89;56.42;96454.78;5443688;26;20007;-47
2024/04/12 03:08:00;;;;;;;4.13;3.00;;;;;;;11.76;56.15;96454.38;5434233;26;20000;-49
2024/04/12 03:10:27;;;;;;;5.78;3.17;;;;;;;11.58;57.14;96454.44;5447759;26;20011;-47
2024/04/12 03:12:52;;;;;;;5.68;3.45;;;;;;;10.88;59.48;96456.00;5444676;26;20057;-48
2024/04/12 03:15:21;;;;;;;6.40;3.20;;;;;;;11.38;57.73;96453.81;5446225;26;19995;-48
2024/04/12 03:17:47;;;;;;;4.35;3.30;;;;;;;11.32;57.37;96453.44;5448071;26;20064;-49
2024/04/12 03:20:18;;;;;;;4.55;3.50;;;;;;;11.45;57.80;96460.84;5446903;26;19999;-49
2024/04/12 03:22:47;;;;;;;5.32;3.30;;;;;;;11.37;57.81;96454.78;5445893;26;19998;-48
2024/04/12 03:25:14;;;;;;;4.40;3.33;;;;;;;11.48;57.65;96457.13;5444530;26;20011;-48
2024/04/12 03:27:39;;;;;;;4.88;3.17;;;;;;;11.58;57.35;96459.66;5448019;26;20017;-47
2024/04/12 03:30:13;;;;;;;6.07;3.30;;;;;;;11.53;57.52;96460.09;5441737;26;20003;-48
2024/04/12 03:32:46;;;;;;;5.10;2.83;;;;;;;11.44;57.23;96459.25;5446816;26;20003;-46
2024/04/12 03:35:16;;;;;;;4.45;3.28;;;;;;;11.25;57.55;96456.78;5448294;26;20046;-49
2024/04/12 03:37:47;;;;;;;;;;;;;;;11.31;57.24;96461.41;5438512;26;19999;-51
2024/04/12 03:40:17;;;;;;;6.93;3.42;;;;;;;11.23;57.83;96458.72;5445694;26;19935;-47
2024/04/12 03:42:44;;;;;;;7.95;3.97;;;;;;;11.13;58.28;96449.22;5446332;26;19999;-49
2024/04/12 03:45:14;;;;;;;5.30;3.40;;;;;;;11.12;58.20;96457.19;5442104;26;19999;-48
2024/04/12 03:47:40;;;;;;;7.72;3.72;;;;;;;11.00;58.97;96448.78;5415789;26;20003;-50
2024/04/12 03:50:13;;;;;;;6.18;3.90;;;;;;;10.87;58.89;96453.53;5444824;26;20011;-47
2024/04/12 03:52:44;;;;;;;5.13;3.65;;;;;;;10.87;58.73;96453.53;5444369;26;20007;-51
2024/04/12 03:55:10;;;;;;;6.97;3.78;;;;;;;11.17;57.47;96448.94;5446435;26;20003;-46
2024/04/12 03:57:39;;;;;;;7.57;3.55;;;;;;;11.14;58.28;96442.25;5446081;26;20010;-49
2024/04/12 04:00:11;;;;;;;5.50;3.75;;;;;;;10.90;59.24;96448.06;5447795;26;20010;-48
2024/04/12 04:02:36;;;;;;;4.50;3.63;;;;;;;11.23;58.59;96450.91;5437677;26;20045;-47
2024/04/12 04:05:13;;;;;;;5.75;4.25;;;;;;;11.32;57.47;96450.81;5407325;26;20003;-51
2024/04/12 04:07:39;;;;;;;7.45;4.05;;;;;;;11.39;56.77;96445.03;5445211;26;20117;-52
2024/04/12 04:10:10;;;;;;;5.55;4.22;;;;;;;11.12;57.85;96452.00;5441281;26;20004;-47
2024/04/12 04:12:44;;;;;;;;;;;;;;;10.74;59.52;96446.94;5438454;26;20003;-47
2024/04/12 04:15:10;;;;;;;6.35;4.60;;;;;;;10.82;58.93;96438.38;5447077;26;19984;-48
2024/04/12 04:17:36;;;;;;;6.82;4.43;;;;;;;10.83;59.08;96440.00;5445181;26;19999;-49
2024/04/12 04:20:06;;;;;;;5.85;4.35;;;;;;;10.83;59.26;96447.81;5445804;26;20017;-47
2024/04/12 04:25:00;;;;;;;8.00;4.40;;;;;;;10.73;58.70;96454.88;5449549;26;20010;-48
2024/04/12 04:27:25;;;;;;;6.07;4.25;;;;;;;10.71;58.78;96452.44;5443312;26;20013;-49
2024/04/12 04:29:52;;;;;;;7.78;4.40;;;;;;;10.62;59.52;96452.50;5451823;26;20029;-47
2024/04/12 04:32:21;;;;;;;6.43;4.30;;;;;;;10.69;58.70;96443.13;5449061;26;20011;-47
2024/04/12 04:34:54;;;;;;;7.57;4.22;;;;;;;10.75;58.76;96458.97;5438658;26;20002;-47
2024/04/12 04:37:19;;;;;;;6.00;3.92;;;;;;;10.67;59.28;96452.88;5445360;26;20003;-49
2024/04/12 04:39:45;;;;;;;8.32;4.28;;;;;;;10.73;59.77;96460.91;5440137;26;20014;-48
2024/04/12 04:42:13;;;;;;;4.47;4.00;;;;;;;10.85;58.81;96471.09;5446737;26;20467;-49
2024/04/12 04:44:39;;;;;;;5.38;4.10;;;;;;;10.87;59.58;96461.34;5447791;26;19999;-48
2024/04/12 04:47:05;;;;;;;7.95;4.15;;;;;;;10.97;59.86;96467.31;5449163;26;19998;-50
2024/04/12 04:49:32;;;;;;;7.75;4.25;;;;;;;11.09;59.38;96460.91;5451770;26;20448;-47
2024/04/12 04:51:57;;;;;;;7.25;4.03;;;;;;;10.95;59.57;96466.66;5439285;26;20006;-49
2024/04/12 04:54:23;;;;;;;6.55;4.30;;;;;;;11.41;58.33;96464.75;5413476;26;20011;-48
2024/04/12 04:56:48;;;;;;;5.90;3.88;;;;;;;11.22;58.73;96465.75;5434129;26;20011;-48
2024/04/12 04:59:18;;;;;;;6.47;3.90;;;;;;;11.31;58.48;96462.22;5432867;26;20003;-48
2024/04/12 05:01:50;;;;;;;7.93;4.15;;;;;;;11.43;57.50;96465.41;5438815;26;20076;-47
2024/04/12 05:04:17;;;;;;;6.63;3.72;;;;;;;11.37;57.88;96476.44;5426384;26;19999;-46
2024/04/12 05:06:43;;;;;;;5.90;3.80;;;;;;;11.38;57.76;96472.03;5427453;26;20015;-46
2024/04/12 05:09:09;;;;;;;4.40;3.70;;;;;;;11.14;58.68;96476.09;5447949;26;20019;-45
2024/04/12 05:11:41;;;;;;;5.22;4.00;;;;;;;11.33;58.30;96481.13;5408785;26;20030;-45
2024/04/12 05:14:13;;;;;;;6.75;3.90;;;;;;;11.53;57.49;96481.75;5428894;26;20588;-45
2024/04/12 05:16:44;;;;;;;5.50;3.63;;;;;;;11.67;57.02;96485.59;5442426;26;20031;-47
2024/04/12 05:19:09;;;;;;;;;;;;;;;11.12;57.61;96486.66;5445951;26;20014;-45
2024/04/12 05:21:38;;;;;;;6.15;3.80;;;;;;;11.50;57.35;96476.06;5445432;26;19936;-45
2024/04/12 05:24:09;;;;;;;7.20;3.92;;;;;;;11.59;56.76;96482.13;5433455;26;20011;-47
2024/04/12 05:26:41;;;;;;;6.40;3.50;;;;;;;11.62;57.03;96484.44;5448990;26;20002;-45
2024/04/12 05:29:10;;;;;;;6.43;3.70;;;;;;;11.90;56.28;96487.75;5440318;26;20080;-48
2024/04/12 05:31:36;;;;;;;5.15;3.65;;;;;;;11.87;56.05;96488.00;5403497;26;20084;-45
2024/04/12 05:34:04;;;;;;;4.57;3.80;;;;;;;11.62;56.24;96485.25;5436335;26;20010;-45
2024/04/12 05:36:32;;;;;;;5.05;3.70;;;;;;;11.79;56.84;96493.19;5444081;26;20072;-45
2024/04/12 05:39:08;;;;;;;8.48;5.00;;;;;;;11.89;57.09;96480.84;5442238;26;20002;-45
2024/04/12 05:41:35;;;;;;;4.47;3.75;;;;;;;12.43;55.54;96489.28;5445620;26;19999;-45
2024/04/12 05:44:01;;;;;;;6.82;4.00;;;;;;;13.51;53.11;96483.25;5447988;26;20011;-46
2024/04/12 05:46:28;;;;;;;5.20;3.67;;;;;;;14.64;50.95;96485.75;5411768;26;20014;-48
2024/04/12 05:48:53;;;;;;;4.28;3.30;;;;;;;15.93;48.32;96488.53;5427937;26;20052;-47
2024/04/12 05:51:19;;;;;;;4.70;3.10;;;;;;;17.32;44.75;96491.22;5449475;26;20007;-46
2024/04/12 05:53:51;;;;;;;3.45;2.53;;;;;;;18.20;41.65;96479.53;5445888;26;20014;-45
2024/04/12 05:56:25;;;;;;;4.57;2.80;;;;;;;18.71;41.17;96485.22;5431626;26;20004;-52
2024/04/12 05:58:51;;;;;;;5.30;2.40;;;;;;;19.30;39.41;96475.06;5403971;26;20000;-49
2024/04/12 06:01:17;;;;;;;4.00;2.40;;;;;;;19.73;39.31;96472.06;5441825;26;20003;-47
2024/04/12 06:03:45;;;;;;;2.30;2.05;;;;;;;19.83;38.93;96483.00;5464421;26;20327;-49
2024/04/12 06:06:13;;;;;;;3.75;2.60;;;;;;;20.15;38.44;96479.72;5437888;26;19995;-47
2024/04/12 06:08:41;;;;;;;6.68;2.50;;;;;;;20.92;37.38;96475.38;5427944;26;20065;-52
2024/04/12 06:11:09;;;;;;;3.10;2.13;;;;;;;21.09;36.46;96470.38;5442114;26;20360;-51
2024/04/12 06:13:35;;;;;;;3.55;2.38;;;;;;;22.01;35.67;96477.88;5442217;26;19998;-48
2024/04/12 06:16:01;;;;;;;3.88;2.20;;;;;;;22.22;34.77;96474.78;5445955;26;19999;-47
2024/04/12 06:18:27;;;;;;;3.72;2.20;;;;;;;22.64;34.51;96469.63;5444694;26;20495;-49
2024/04/12 06:20:52;;;;;;;3.17;1.90;;;;;;;23.61;32.58;96465.22;5446282;26;20022;-51
2024/04/12 06:23:19;;;;;;;3.33;2.10;;;;;;;23.95;31.42;96461.00;5435259;26;19998;-48
2024/04/12 06:25:45;;;;;;;3.15;2.00;;;;;;;24.33;31.85;96456.19;5446083;26;19995;-50
2024/04/12 06:28:12;;;;;;;3.95;2.00;;;;;;;23.84;31.94;96463.63;5448483;26;20034;-49
2024/04/12 06:30:43;;;;;;;2.60;1.85;;;;;;;24.22;31.74;96463.16;5438186;26;20003;-50
2024/04/12 06:33:12;;;;;;;2.55;1.80;;;;;;;23.85;32.23;96457.28;5441051;26;20105;-52
2024/04/12 06:35:39;;;;;;;2.65;2.03;;;;;;;24.78;30.67;96469.63;5437532;26;20003;-49
2024/04/12 06:38:08;;;;;;;3.25;1.90;;;;;;;23.83;33.43;96467.34;5415851;26;20135;-51
2024/04/12 06:40:37;;;;;;;3.50;2.67;;;;;;;24.86;29.97;96471.09;5445372;26;20017;-51
2024/04/12 06:43:11;;;;;;;4.20;2.00;;;;;;;24.40;30.81;96467.53;5448364;26;20007;-51
2024/04/12 06:45:43;;;;;;;3.00;1.95;;;;;;;23.95;32.45;96465.47;5445453;26;20459;-51
2024/04/12 06:48:10;;;;;;;3.20;2.20;;;;;;;24.51;31.12;96464.06;5446158;26;20347;-49
2024/04/12 06:50:36;;;;;;;3.45;1.92;;;;;;;24.28;32.60;96472.06;5446921;26;19999;-51
2024/04/12 06:53:08;;;;;;;3.10;1.92;;;;;;;24.34;32.06;96468.47;5448415;26;20027;-50
2024/04/12 06:55:45;;;;;;;3.55;2.30;;;;;;;25.11;30.84;96473.44;5439343;26;20003;-48
2024/04/12 06:58:12;;;;;;;3.28;2.15;;;;;;;25.04;30.92;96466.66;5442455;26;20075;-49
2024/04/12 07:00:37;;;;;;;6.03;1.98;;;;;;;24.43;32.52;96467.06;5432986;26;20035;-50
2024/04/12 07:03:07;;;;;;;2.97;2.20;;;;;;;25.77;30.20;96461.50;5445637;26;20018;-47
2024/04/12 07:05:33;;;;;;;2.58;2.30;;;;;;;24.56;32.29;96461.50;5445339;26;20017;-49
2024/04/12 07:07:58;;;;;;;3.00;2.08;;;;;;;24.95;31.46;96453.72;5439713;26;19998;-49
2024/04/12 07:10:27;;;;;;;3.70;2.05;;;;;;;25.44;30.97;96455.91;5446111;26;20037;-46
2024/04/12 07:12:55;;;;;;;3.63;2.38;;;;;;;25.80;30.64;96459.16;5386553;26;20017;-51
2024/04/12 07:15:21;;;;;;;3.83;2.30;;;;;;;26.21;28.90;96461.59;5397020;26;20014;-47
2024/04/12 07:17:47;;;;;;;2.67;2.00;;;;;;;26.00;30.47;96455.97;5434178;26;19999;-47
2024/04/12 07:20:27;;;;;;;4.22;2.00;;;;;;;26.66;28.50;96445.38;5445785;26;19998;-50
2024/04/12 07:22:52;;;;;;;;;;;;;;;24.87;30.94;96450.66;5440479;26;20075;-50
2024/04/12 07:25:18;;;;;;;3.20;2.00;;;;;;;26.64;29.47;96447.50;5443234;26;20048;-48
2024/04/12 07:27:47;;;;;;;3.72;2.10;;;;;;;26.25;29.67;96447.50;5440483;26;20298;-50
2024/04/12 07:30:14;;;;;;;5.00;1.88;;;;;;;26.16;30.30;96437.53;5447445;26;20067;-48
2024/04/12 07:32:39;;;;;;;3.17;1.90;;;;;;;26.46;30.46;96445.09;5442307;26;19995;-47
2024/04/12 07:35:22;;;;;;;3.08;2.20;;;;;;;26.40;29.12;96440.78;5429487;26;20006;-48
2024/04/12 07:37:47;;;;;;;3.08;2.05;;;;;;;27.05;28.59;96433.75;5442361;26;20045;-47
2024/04/12 07:40:18;;;;;;;3.38;2.20;;;;;;;27.28;27.14;96430.81;5429988;26;19996;-50
2024/04/12 07:42:47;;;;;;;3.75;2.13;;;;;;;26.99;27.75;96429.44;5430616;26;20009;-50
2024/04/12 07:45:23;;;;;;;3.87;2.20;;;;;;;25.93;28.34;96434.84;5442192;26;20075;-51
2024/04/12 07:47:53;;;;;;;4.32;2.20;;;;;;;26.06;29.29;96436.34;5427891;26;20015;-51
2024/04/12 07:50:29;;;;;;;2.40;1.75;;;;;;;26.69;28.60;96444.91;5439226;26;20000;-48
2024/04/12 07:52:57;;;;;;;3.05;2.17;;;;;;;26.37;30.14;96431.41;5444601;26;20017;-48
2024/04/12 07:55:25;;;;;;;5.80;2.28;;;;;;;26.56;30.02;96439.91;5446880;26;20003;-50
2024/04/12 07:57:54;;;;;;;2.70;2.20;;;;;;;27.82;27.51;96439.75;5448716;26;20002;-48
2024/04/12 08:00:35;;;;;;;3.17;2.20;;;;;;;28.38;26.92;96441.94;5443464;26;20440;-48
2024/04/12 08:03:06;;;;;;;3.03;1.90;;;;;;;29.02;26.57;96443.53;5443709;26;20002;-51
2024/04/12 08:05:42;;;;;;;3.80;2.30;;;;;;;28.45;26.71;96448.66;5443347;26;20019;-46
2024/04/12 08:08:14;;;;;;;6.10;2.45;;;;;;;27.65;27.43;96450.59;5443839;26;20010;-50
2024/04/12 08:10:41;;;;;;;3.80;2.20;;;;;;;27.14;28.32;96448.28;5449283;26;20003;-47
2024/04/12 08:13:10;;;;;;;3.58;2.42;;;;;;;27.07;28.80;96448.50;5449641;26;20002;-49
2024/04/12 08:15:42;;;;;;;3.17;2.10;;;;;;;26.88;29.18;96453.38;5463731;26;20075;-47
2024/04/12 08:18:07;;;;;;;3.83;2.10;;;;;;;26.40;31.47;96451.44;5451546;26;20018;-49
2024/04/12 08:20:39;;;;;;;3.28;2.20;;;;;;;26.08;30.27;96455.59;5449982;26;20002;-49
2024/04/12 08:23:05;;;;;;;3.38;2.30;;;;;;;26.36;31.13;96458.34;5435203;26;20015;-47
2024/04/12 08:25:36;;;;;;;3.53;2.30;;;;;;;26.23;30.97;96452.28;5445788;26;20034;-49
2024/04/12 08:28:06;;;;;;;3.75;2.42;;;;;;;25.96;30.79;96454.88;5451180;26;20017;-48
2024/04/12 08:30:33;;;;;;;4.07;2.30;;;;;;;25.23;32.28;96457.44;5449671;26;20002;-47
2024/04/12 08:33:02;;;;;;;3.38;2.60;;;;;;;24.53;33.80;96458.50;5442791;26;20089;-49
2024/04/12 08:35:29;;;;;;;5.47;2.60;;;;;;;24.63;33.98;96449.91;5449319;26;20011;-51
2024/04/12 08:37:54;;;;;;;3.90;2.60;;;;;;;24.90;33.17;96453.63;5442862;26;20000;-51
2024/04/12 08:40:21;;;;;;;3.38;2.70;;;;;;;25.25;32.99;96457.19;5438535;26;20003;-48
2024/04/12 08:42:47;;;;;;;4.53;2.50;;;;;;;24.93;33.08;96460.34;5446607;26;20035;-46
2024/04/12 08:45:17;;;;;;;4.18;2.63;;;;;;;25.21;33.53;96451.53;5448739;26;20011;-48
2024/04/12 08:48:04;;;;;;;5.10;2.42;;;;;;;24.89;33.44;96456.53;5449037;26;20018;-46
2024/04/12 08:50:34;;;;;;;3.92;2.42;;;;;;;25.16;34.61;96456.75;5449437;26;19999;-48
2024/04/12 08:53:11;;;;;;;3.75;2.50;;;;;;;25.02;33.50;96464.22;5450457;26;20003;-52
2024/04/12 08:55:42;;;;;;;4.38;2.85;;;;;;;24.77;34.80;96453.94;5448279;26;20080;-47
2024/04/12 08:58:10;;;;;;;3.75;2.55;;;;;;;24.55;36.65;96454.56;5442302;26;20382;-49
2024/04/12 09:00:37;;;;;;;3.45;2.10;;;;;;;25.05;34.17;96449.63;5443892;26;20076;-46
2024/04/12 09:03:04;;;;;;;2.47;2.10;;;;;;;25.04;33.99;96442.69;5446626;26;20010;-47
2024/04/12 09:05:35;;;;;;;2.70;2.10;;;;;;;24.35;35.42;96435.50;5447060;26;20003;-46
2024/04/12 09:08:03;;;;;;;5.10;2.30;;;;;;;24.51;34.66;96441.94;5444256;26;20003;-46
2024/04/12 09:10:36;;;;;;;4.05;2.85;;;;;;;24.46;35.03;96439.97;5447877;26;20352;-46
2024/04/12 09:13:14;;;;;;;3.92;2.25;;;;;;;24.38;36.45;96437.69;5435611;26;20003;-46
2024/04/12 09:15:43;;;;;;;4.70;2.50;;;;;;;24.29;36.48;96428.47;5437875;26;20003;-46
2024/04/12 09:18:25;;;;;;;5.18;2.67;;;;;;;24.12;34.56;96434.53;5444876;26;20002;-50
2024/04/12 09:21:01;;;;;;;4.43;2.63;;;;;;;23.45;36.52;96429.53;5440429;26;20013;-46
2024/04/12 09:23:32;;;;;;;4.55;2.70;;;;;;;23.62;36.08;96422.47;5445184;26;20017;-49
2024/04/12 09:26:00;;;;;;;4.72;2.42;;;;;;;23.83;36.56;96422.19;5445651;26;20304;-50
2024/04/12 09:28:27;;;;;;;4.35;2.40;;;;;;;23.84;37.35;96410.50;5443535;26;20002;-51
2024/04/12 09:33:50;;;;;;;3.85;2.40;;;;;;;23.28;38.23;96423.28;5443386;26;20010;-49
2024/04/12 09:36:39;;;;;;;2.85;2.10;;;;;;;23.55;38.72;96428.94;5434487;26;19999;-48
2024/04/12 09:39:14;;;;;;;4.53;2.60;;;;;;;23.62;37.97;96416.38;5444374;26;20010;-50
2024/04/12 09:41:56;;;;;;;5.25;2.40;;;;;;;23.11;38.29;96420.47;5444357;26;20015;-47
2024/04/12 09:44:27;;;;;;;5.88;2.70;;;;;;;23.46;38.14;96412.56;5445258;26;20022;-47
2024/04/12 10:37:23;;;;;;;6.60;3.58;;;;;;;23.38;37.88;96397.78;5438394;26;20013;-53
2024/04/12 10:39:55;;;;;;;4.68;3.30;;;;;;;23.29;38.89;96401.00;5421262;26;20010;-49
2024/04/12 10:42:25;;;;;;;4.18;3.50;;;;;;;23.15;38.17;96398.56;5441841;26;19998;-51
2024/04/12 10:44:56;;;;;;;6.07;3.65;;;;;;;22.85;37.46;96403.88;5443083;26;20017;-50
2024/04/12 10:47:24;;;;;;;5.50;3.40;;;;;;;22.77;40.48;96404.19;5437944;26;20004;-51
2024/04/12 10:49:51;;;;;;;5.72;3.67;;;;;;;22.93;38.85;96392.94;5448594;26;20007;-50
2024/04/12 10:52:20;;;;;;;6.10;3.50;;;;;;;22.88;38.90;96390.16;5443029;26;20014;-46
2024/04/12 10:54:47;;;;;;;4.68;3.38;;;;;;;23.16;39.82;96386.09;5443414;26;20015;-50
2024/04/12 10:57:18;;;;;;;6.80;3.60;;;;;;;23.28;40.34;96381.59;5429616;26;20010;-51
2024/04/12 10:59:44;;;;;;;4.55;3.50;;;;;;;23.52;36.75;96376.31;5443386;26;19998;-50
2024/04/12 11:02:13;;;;;;;5.32;3.38;;;;;;;23.52;36.78;96376.31;5446978;26;20013;-52
2024/04/12 11:07:23;;;;;;;3.97;3.20;;;;;;;23.47;39.55;96365.56;5418044;26;20092;-53
2024/04/12 11:09:57;;;;;;;5.90;3.42;;;;;;;23.80;39.79;96368.47;5445784;26;20002;-52
2024/04/12 11:12:45;;;;;;;6.28;3.25;;;;;;;24.28;39.29;96363.06;5444803;26;20062;-52
2024/04/12 11:32:12;;;;;;;5.38;3.70;;;;;;;24.20;38.26;96335.78;5430736;26;20057;-49
2024/04/12 11:34:40;;;;;;;3.85;3.55;;;;;;;24.12;37.72;96327.38;5445146;26;20043;-48
2024/04/12 11:37:06;;;;;;;4.38;3.47;;;;;;;24.25;39.72;96332.41;5444391;26;20331;-47
2024/04/12 11:39:35;;;;;;;6.43;3.47;;;;;;;24.47;38.39;96334.44;5441431;26;20025;-46
2024/04/12 11:42:03;;;;;;;6.53;3.40;;;;;;;25.03;39.04;96337.25;5438606;26;20342;-46
2024/04/12 11:44:29;;;;;;;4.35;3.78;;;;;;;25.08;37.71;96326.72;5444539;26;20024;-50
2024/04/12 11:46:56;;;;;;;4.38;3.67;;;;;;;24.83;37.29;96325.25;5452039;26;19999;-51
2024/04/12 11:49:25;;;;;;;4.70;3.58;;;;;;;24.74;38.12;96326.69;5442512;26;20003;-51
2024/04/12 11:51:59;;;;;;;6.45;4.10;;;;;;;24.69;37.56;96331.91;5442388;26;20334;-52
2024/04/12 11:54:29;;;;;;;5.93;3.72;;;;;;;24.75;36.97;96334.44;5422990;26;20444;-50
2024/04/12 11:57:01;;;;;;;4.60;3.42;;;;;;;24.64;37.73;96339.81;5443842;26;20014;-53
2024/04/12 11:59:29;;;;;;;4.72;3.67;;;;;;;24.69;35.98;96339.88;5442770;26;20002;-50
2024/04/12 12:01:59;;;;;;;5.40;3.35;;;;;;;24.76;36.61;96340.56;5448996;26;20007;-51
2024/04/12 12:04:33;;;;;;;5.18;3.40;;;;;;;24.68;38.16;96338.28;5436101;26;20003;-49
2024/04/12 12:07:03;;;;;;;4.18;2.72;;;;;;;24.68;35.43;96333.78;5441623;26;20003;-52
2024/04/12 12:09:31;;;;;;;4.43;2.85;;;;;;;24.59;37.72;96324.56;5438849;26;20002;-51
2024/04/12 12:11:58;;;;;;;3.90;2.50;;;;;;;24.72;37.19;96329.56;5433733;26;20451;-51
2024/04/12 12:14:25;;;;;;;4.00;3.30;;;;;;;24.89;35.24;96331.47;5446219;26;20003;-52
2024/04/12 12:16:51;;;;;;;5.43;2.97;;;;;;;24.85;37.36;96327.66;5452046;26;20023;-50
2024/04/12 12:19:18;;;;;;;4.72;3.00;;;;;;;24.85;37.37;96331.13;5444598;26;20026;-47
2024/04/12 12:21:45;;;;;;;4.65;3.28;;;;;;;24.75;36.31;96341.59;5418678;26;20003;-48
2024/04/12 12:24:11;;;;;;;5.93;3.22;;;;;;;24.94;35.77;96347.50;5435130;26;19999;-49
2024/04/12 12:26:36;;;;;;;4.75;3.47;;;;;;;24.87;37.79;96346.88;5439891;26;20071;-47
2024/04/12 12:29:02;;;;;;;6.47;3.47;;;;;;;24.41;36.47;96341.50;5441380;26;20010;-46
2024/04/12 12:31:27;;;;;;;5.82;3.55;;;;;;;24.56;35.95;96340.97;5471008;26;19999;-48
2024/04/12 12:33:53;;;;;;;4.03;3.10;;;;;;;24.45;36.61;96347.16;5445454;26;19995;-49
2024/04/12 12:36:21;;;;;;;5.80;3.50;;;;;;;24.51;38.20;96338.22;5450929;26;20002;-49
2024/04/12 12:38:48;;;;;;;5.65;3.53;;;;;;;24.33;38.85;96339.22;5434400;26;20059;-46
2024/04/12 12:41:14;;;;;;;5.32;3.80;;;;;;;24.45;37.35;96332.00;5434599;26;20026;-49
2024/04/12 12:43:44;;;;;;;5.28;4.10;;;;;;;24.90;36.22;96343.69;5415309;26;20003;-46
2024/04/12 12:46:13;;;;;;;6.30;3.55;;;;;;;24.53;36.00;96334.31;5450299;26;20042;-47
2024/04/12 12:48:39;;;;;;;5.72;4.13;;;;;;;25.11;37.91;96339.50;5436960;26;20015;-46
2024/04/12 12:51:09;;;;;;;4.82;3.85;;;;;;;25.05;36.66;96341.28;5447914;26;20007;-46
2024/04/12 12:53:36;;;;;;;6.78;3.75;;;;;;;25.22;37.83;96341.28;5451048;26;20002;-46
2024/04/12 12:56:02;;;;;;;9.25;4.00;;;;;;;25.00;37.06;96337.72;5448226;26;20018;-49
2024/04/12 12:58:28;;;;;;;6.32;4.50;;;;;;;25.26;35.81;96338.97;5448990;26;20015;-48